Time;durP1;ratioP1;P1;durP2;ratioP2;P2;SDS_P1;SDS_P2;PMS_P1;PMS_P2;Temp;Humidity;BMP_temperature;BMP_pressure;BME280_temperature;BME280_humidity;BME280_pressure;Samples;Min_cycle;Max_cycle;Signal;HPM_P1;HPM_P2
2022/03/12 00:01:10;;;;;;;;;;;;;;;;;;5004670;28;19918;-72
2022/03/12 00:03:38;;;;;;;;;;;;;;;;;;4999622;28;20019;-69
2022/03/12 00:06:06;;;;;;;;;;;;;;;;;;5003141;28;20266;-70
2022/03/12 00:08:46;;;;;;;;;;;;;;;;;;5001893;28;19917;-69
2022/03/12 00:11:13;;;;;;;;;;;;;;;;;;4999602;28;20444;-70
2022/03/12 00:13:39;;;;;;;;;;;;;;;;;;5005066;28;19917;-70
2022/03/12 00:16:08;;;;;;;;;;;;;;;;;;5002788;28;19927;-71
2022/03/12 00:18:39;;;;;;;;;;;;;;;;;;5003635;28;19917;-70
2022/03/12 00:21:10;;;;;;;;;;;;;;;;;;5002656;28;19984;-70
2022/03/12 00:23:36;;;;;;;;;;;;;;;;;;5002371;28;19928;-69
2022/03/12 00:26:04;;;;;;;;;;;;;;;;;;4988676;28;20374;-69
2022/03/12 00:28:31;;;;;;;;;;;;;;;;;;5000249;28;19921;-68
2022/03/12 00:30:57;;;;;;;;;;;;;;;;;;4987263;28;20150;-69
2022/03/12 00:33:25;;;;;;;;;;;;;;;;;;5000553;28;19944;-69
2022/03/12 00:35:52;;;;;;;;;;;;;;;;;;5002964;28;20387;-69
2022/03/12 00:38:19;;;;;;;;;;;;;;;;;;4999785;28;19917;-69
2022/03/12 00:40:46;;;;;;;;;;;;;;;;;;5003980;28;19917;-69
2022/03/12 00:43:12;;;;;;;;;;;;;;;;;;5003399;28;19935;-69
2022/03/12 00:45:40;;;;;;;;;;;;;;;;;;5022982;28;19921;-69
2022/03/12 00:48:06;;;;;;;;;;;;;;;;;;5023879;28;20424;-69
2022/03/12 00:50:32;;;;;;;;;;;;;;;;;;5001650;28;19950;-69
2022/03/12 00:52:58;;;;;;;;;;;;;;;;;;5023087;28;20409;-69
2022/03/12 00:55:24;;;;;;;;;;;;;;;;;;5001077;28;20244;-70
2022/03/12 00:57:50;;;;;;;;;;;;;;;;;;5016713;28;19936;-70
2022/03/12 01:00:16;;;;;;;;;;;;;;;;;;5006373;28;20075;-69
2022/03/12 01:02:43;;;;;;;;;;;;;;;;;;4973600;28;19924;-70
2022/03/12 01:05:10;;;;;;;;;;;;;;;;;;4983873;28;20389;-69
2022/03/12 01:07:38;;;;;;;;;;;;;;;;;;5010897;28;19925;-70
2022/03/12 01:10:08;;;;;;;;;;;;;;;;;;5011569;28;20236;-69
2022/03/12 01:12:34;;;;;;;;;;;;;;;;;;5008347;28;19921;-70
2022/03/12 01:15:03;;;;;;;;;;;;;;;;;;5013207;28;19986;-70
2022/03/12 01:17:32;;;;;;;;;;;;;;;;;;4990737;28;19925;-70
2022/03/12 01:19:58;;;;;;;;;;;;;;;;;;5010740;28;19917;-70
2022/03/12 01:22:26;;;;;;;;;;;;;;;;;;5001991;28;19985;-69
2022/03/12 01:24:53;;;;;;;;;;;;;;;;;;5009677;28;19927;-71
2022/03/12 01:27:19;;;;;;;;;;;;;;;;;;5010930;28;20367;-69
2022/03/12 01:29:45;;;;;;;;;;;;;;;;;;5012503;28;19933;-70
2022/03/12 01:32:12;;;;;;;;;;;;;;;;;;5012086;28;20001;-70
2022/03/12 01:34:39;;;;;;;;;;;;;;;;;;5010162;28;19979;-70
2022/03/12 01:37:06;;;;;;;;;;;;;;;;;;5005660;28;19972;-70
2022/03/12 01:39:33;;;;;;;;;;;;;;;;;;5005115;28;19916;-70
2022/03/12 01:41:59;;;;;;;;;;;;;;;;;;5008045;28;20005;-70
2022/03/12 01:44:27;;;;;;;;;;;;;;;;;;5006840;28;19921;-71
2022/03/12 01:46:54;;;;;;;;;;;;;;;;;;5013107;28;19921;-70
2022/03/12 01:49:23;;;;;;;;;;;;;;;;;;5008800;28;19917;-71
2022/03/12 01:51:50;;;;;;;;;;;;;;;;;;5014108;28;19963;-70
2022/03/12 01:54:18;;;;;;;;;;;;;;;;;;5009757;28;19917;-70
2022/03/12 01:56:45;;;;;;;;;;;;;;;;;;5011779;28;19917;-71
2022/03/12 01:59:13;;;;;;;;;;;;;;;;;;5021680;28;20002;-70
2022/03/12 02:01:41;;;;;;;;;;;;;;;;;;5016854;28;19980;-70
2022/03/12 02:04:10;;;;;;;;;;;;;;;;;;4988782;28;19983;-72
2022/03/12 02:06:43;;;;;;;;;;;;;;;;;;5013349;28;19933;-71
2022/03/12 02:09:14;;;;;;;;;;;;;;;;;;5012968;28;20704;-70
2022/03/12 02:11:49;;;;;;;;;;;;;;;;;;5014767;28;20024;-70
2022/03/12 02:14:17;;;;;;;;;;;;;;;;;;5006986;28;19922;-69
2022/03/12 02:16:44;;;;;;;;;;;;;;;;;;5016618;28;19916;-70
2022/03/12 02:19:12;;;;;;;;;;;;;;;;;;5013775;28;20053;-70
2022/03/12 02:21:42;;;;;;;;;;;;;;;;;;5015005;28;19924;-70
2022/03/12 02:24:08;;;;;;;;;;;;;;;;;;5014536;28;20016;-70
2022/03/12 02:26:38;;;;;;;;;;;;;;;;;;5012599;28;19921;-69
2022/03/12 02:29:13;;;;;;;;;;;;;;;;;;5015339;28;19916;-70
2022/03/12 02:31:40;;;;;;;;;;;;;;;;;;5002168;28;19972;-70
2022/03/12 02:34:10;;;;;;;;;;;;;;;;;;4998365;28;20059;-70
2022/03/12 02:36:37;;;;;;;;;;;;;;;;;;5016588;28;19917;-69
2022/03/12 02:39:04;;;;;;;;;;;;;;;;;;5013184;28;19959;-70
2022/03/12 02:41:31;;;;;;;;;;;;;;;;;;5008911;28;20001;-70
2022/03/12 02:43:58;;;;;;;;;;;;;;;;;;4993718;28;20340;-69
2022/03/12 02:46:29;;;;;;;;;;;;;;;;;;4997770;28;19925;-70
2022/03/12 02:48:56;;;;;;;;;;;;;;;;;;5015019;28;19932;-69
2022/03/12 02:51:26;;;;;;;;;;;;;;;;;;5006400;28;19917;-69
2022/03/12 02:53:56;;;;;;;;;;;;;;;;;;5011189;28;19917;-71
2022/03/12 02:56:22;;;;;;;;;;;;;;;;;;5014400;28;20353;-70
2022/03/12 02:58:50;;;;;;;;;;;;;;;;;;5014545;28;19925;-70
2022/03/12 03:01:27;;;;;;;;;;;;;;;;;;5007108;28;19917;-71
2022/03/12 03:03:56;;;;;;;;;;;;;;;;;;5015931;28;20320;-70
2022/03/12 03:06:23;;;;;;;;;;;;;;;;;;5001467;28;19925;-71
2022/03/12 03:08:50;;;;;;;;;;;;;;;;;;5011494;28;20222;-70
2022/03/12 03:11:19;;;;;;;;;;;;;;;;;;5004904;28;20162;-70
2022/03/12 03:13:47;;;;;;;;;;;;;;;;;;5013619;28;20028;-71
2022/03/12 03:16:19;;;;;;;;;;;;;;;;;;5010533;28;19944;-70
2022/03/12 03:18:50;;;;;;;;;;;;;;;;;;5010115;28;19961;-70
2022/03/12 03:21:16;;;;;;;;;;;;;;;;;;5009082;28;20019;-70
2022/03/12 03:23:46;;;;;;;;;;;;;;;;;;5008911;28;20472;-70
2022/03/12 03:26:13;;;;;;;;;;;;;;;;;;5010302;28;19991;-70
2022/03/12 03:28:41;;;;;;;;;;;;;;;;;;5012981;28;19918;-70
2022/03/12 03:31:07;;;;;;;;;;;;;;;;;;5005812;28;19971;-70
2022/03/12 03:33:33;;;;;;;;;;;;;;;;;;4988663;28;19921;-70
2022/03/12 03:35:59;;;;;;;;;;;;;;;;;;5016951;28;20317;-70
2022/03/12 03:38:26;;;;;;;;;;;;;;;;;;5011525;28;19924;-71
2022/03/12 03:40:52;;;;;;;;;;;;;;;;;;5020762;28;20396;-70
2022/03/12 03:43:21;;;;;;;;;;;;;;;;;;5008800;28;19960;-70
2022/03/12 03:45:49;;;;;;;;;;;;;;;;;;5016684;28;19923;-69
2022/03/12 03:48:16;;;;;;;;;;;;;;;;;;4994947;28;20283;-69
2022/03/12 03:50:45;;;;;;;;;;;;;;;;;;5021924;28;19917;-69
2022/03/12 03:53:11;;;;;;;;;;;;;;;;;;5013199;28;19923;-70
2022/03/12 03:55:37;;;;;;;;;;;;;;;;;;5014714;28;20304;-70
2022/03/12 03:58:04;;;;;;;;;;;;;;;;;;5021632;28;19996;-70
2022/03/12 04:00:33;;;;;;;;;;;;;;;;;;4998527;28;19921;-70
2022/03/12 04:03:04;;;;;;;;;;;;;;;;;;5031740;28;19935;-69
2022/03/12 04:05:31;;;;;;;;;;;;;;;;;;5027702;28;20077;-70
2022/03/12 04:08:02;;;;;;;;;;;;;;;;;;5034879;28;20466;-69
2022/03/12 04:10:29;;;;;;;;;;;;;;;;;;5030979;28;19917;-69
2022/03/12 04:12:57;;;;;;;;;;;;;;;;;;5030921;28;20020;-70
2022/03/12 04:15:24;;;;;;;;;;;;;;;;;;5029579;28;20380;-69
2022/03/12 04:17:52;;;;;;;;;;;;;;;;;;5034043;28;20343;-70
2022/03/12 04:20:27;;;;;;;;;;;;;;;;;;5030103;28;20211;-70
2022/03/12 04:22:54;;;;;;;;;;;;;;;;;;5032663;28;19924;-69
2022/03/12 04:25:25;;;;;;;;;;;;;;;;;;5029420;28;19960;-69
2022/03/12 04:27:51;;;;;;;;;;;;;;;;;;5034897;28;19963;-69
2022/03/12 04:30:19;;;;;;;;;;;;;;;;;;5029541;28;19920;-69
2022/03/12 04:32:47;;;;;;;;;;;;;;;;;;5029591;28;19975;-69
2022/03/12 04:35:34;;;;;;;;;;;;;;;;;;5027647;28;22736;-70
2022/03/12 04:38:20;;;;;;;;;;;;;;;;;;5031076;28;19917;-70
2022/03/12 04:40:47;;;;;;;;;;;;;;;;;;5029929;28;20014;-68
2022/03/12 04:43:14;;;;;;;;;;;;;;;;;;5029501;28;19916;-71
2022/03/12 04:45:40;;;;;;;;;;;;;;;;;;5031994;28;19917;-68
2022/03/12 04:48:10;;;;;;;;;;;;;;;;;;5035010;28;19929;-69
2022/03/12 04:50:38;;;;;;;;;;;;;;;;;;5030759;28;20172;-70
2022/03/12 04:53:04;;;;;;;;;;;;;;;;;;5033026;28;19959;-69
2022/03/12 04:55:31;;;;;;;;;;;;;;;;;;5026402;28;19928;-68
2022/03/12 04:57:58;;;;;;;;;;;;;;;;;;5029570;28;19916;-70
2022/03/12 05:00:25;;;;;;;;;;;;;;;;;;5029398;28;20462;-69
2022/03/12 05:02:51;;;;;;;;;;;;;;;;;;5031683;28;19971;-69
2022/03/12 05:05:17;;;;;;;;;;;;;;;;;;5029243;28;20418;-69
2022/03/12 05:07:46;;;;;;;;;;;;;;;;;;5031661;28;19956;-69
2022/03/12 05:10:16;;;;;;;;;;;;;;;;;;5028711;28;19937;-68
2022/03/12 05:12:47;;;;;;;;;;;;;;;;;;5031340;28;20438;-69
2022/03/12 05:15:16;;;;;;;;;;;;;;;;;;5026549;28;19924;-71
2022/03/12 05:17:44;;;;;;;;;;;;;;;;;;5032215;28;19925;-70
2022/03/12 05:20:13;;;;;;;;;;;;;;;;;;5032441;28;19941;-70
2022/03/12 05:22:40;;;;;;;;;;;;;;;;;;5033249;28;19921;-69
2022/03/12 05:25:08;;;;;;;;;;;;;;;;;;5034515;28;19916;-69
2022/03/12 05:27:38;;;;;;;;;;;;;;;;;;5027266;28;19920;-71
2022/03/12 05:30:04;;;;;;;;;;;;;;;;;;5009319;28;19921;-69
2022/03/12 05:32:30;;;;;;;;;;;;;;;;;;4990661;28;20358;-70
2022/03/12 05:34:56;;;;;;;;;;;;;;;;;;5008063;28;19917;-69
2022/03/12 05:37:23;;;;;;;;;;;;;;;;;;4993697;28;19921;-70
2022/03/12 05:39:51;;;;;;;;;;;;;;;;;;5004690;28;19924;-71
2022/03/12 05:42:22;;;;;;;;;;;;;;;;;;5003098;28;19921;-71
2022/03/12 05:44:51;;;;;;;;;;;;;;;;;;5008744;28;19917;-69
2022/03/12 05:47:23;;;;;;;;;;;;;;;;;;4972322;28;20037;-69
2022/03/12 05:49:52;;;;;;;;;;;;;;;;;;5008206;28;20008;-69
2022/03/12 05:52:37;;;;;;;;;;;;;;;;;;5005057;28;20281;-69
2022/03/12 05:55:04;;;;;;;;;;;;;;;;;;4993642;28;19971;-69
2022/03/12 05:57:31;;;;;;;;;;;;;;;;;;5004044;28;19952;-69
2022/03/12 06:00:02;;;;;;;;;;;;;;;;;;5008151;28;19964;-68
2022/03/12 06:02:29;;;;;;;;;;;;;;;;;;4998370;28;20261;-69
2022/03/12 06:05:00;;;;;;;;;;;;;;;;;;5006486;28;19923;-69
2022/03/12 06:07:27;;;;;;;;;;;;;;;;;;5003639;28;20227;-70
2022/03/12 06:09:53;;;;;;;;;;;;;;;;;;4989771;28;19918;-70
2022/03/12 06:12:21;;;;;;;;;;;;;;;;;;4986599;28;20402;-70
2022/03/12 06:14:51;;;;;;;;;;;;;;;;;;4992624;28;19917;-70
2022/03/12 06:17:27;;;;;;;;;;;;;;;;;;4987085;28;19929;-70
2022/03/12 06:19:54;;;;;;;;;;;;;;;;;;4993921;28;20339;-70
2022/03/12 06:22:21;;;;;;;;;;;;;;;;;;5007055;28;20724;-70
2022/03/12 06:24:49;;;;;;;;;;;;;;;;;;5011291;28;20003;-70
2022/03/12 06:27:17;;;;;;;;;;;;;;;;;;4988124;28;19959;-70
2022/03/12 06:29:44;;;;;;;;;;;;;;;;;;4997377;28;20011;-71
2022/03/12 06:32:13;;;;;;;;;;;;;;;;;;5008300;28;20541;-70
2022/03/12 06:34:44;;;;;;;;;;;;;;;;;;5006788;28;20205;-70
2022/03/12 06:37:31;;;;;;;;;;;;;;;;;;5011692;28;19916;-71
2022/03/12 06:39:58;;;;;;;;;;;;;;;;;;5009960;28;19917;-70
2022/03/12 06:42:32;;;;;;;;;;;;;;;;;;5005257;28;20007;-69
2022/03/12 06:44:59;;;;;;;;;;;;;;;;;;5011972;28;20548;-70
2022/03/12 06:47:28;;;;;;;;;;;;;;;;;;5018768;28;19925;-70
2022/03/12 06:49:56;;;;;;;;;;;;;;;;;;5024105;28;20377;-71
2022/03/12 06:52:22;;;;;;;;;;;;;;;;;;4997899;28;19924;-71
2022/03/12 06:54:49;;;;;;;;;;;;;;;;;;5012889;28;20291;-71
2022/03/12 06:57:15;;;;;;;;;;;;;;;;;;5018064;28;19948;-72
2022/03/12 06:59:41;;;;;;;;;;;;;;;;;;5023390;28;20678;-71
2022/03/12 07:02:08;;;;;;;;;;;;;;;;;;5036023;28;19917;-71
2022/03/12 07:04:35;;;;;;;;;;;;;;;;;;5030116;28;19917;-72
2022/03/12 07:07:03;;;;;;;;;;;;;;;;;;5030811;28;20400;-72
2022/03/12 07:09:30;;;;;;;;;;;;;;;;;;5032392;28;19928;-71
2022/03/12 07:12:00;;;;;;;;;;;;;;;;;;5030726;28;19921;-71
2022/03/12 07:14:27;;;;;;;;;;;;;;;;;;5029887;28;19928;-71
2022/03/12 07:16:53;;;;;;;;;;;;;;;;;;5017151;28;19917;-71
2022/03/12 07:19:19;;;;;;;;;;;;;;;;;;5031290;28;19924;-71
2022/03/12 07:21:46;;;;;;;;;;;;;;;;;;5035715;28;19917;-71
2022/03/12 07:24:12;;;;;;;;;;;;;;;;;;5034741;28;20388;-71
2022/03/12 07:26:40;;;;;;;;;;;;;;;;;;5030286;28;19932;-72
2022/03/12 07:29:06;;;;;;;;;;;;;;;;;;5035831;28;19921;-71
2022/03/12 07:31:37;;;;;;;;;;;;;;;;;;5008783;28;19917;-72
2022/03/12 07:34:04;;;;;;;;;;;;;;;;;;5029206;28;19960;-71
2022/03/12 07:36:32;;;;;;;;;;;;;;;;;;5030044;28;20016;-71
2022/03/12 07:39:03;;;;;;;;;;;;;;;;;;5035555;28;20047;-70
2022/03/12 07:41:33;;;;;;;;;;;;;;;;;;5030702;28;19932;-71
2022/03/12 07:44:00;;;;;;;;;;;;;;;;;;5031026;28;19928;-70
2022/03/12 07:46:26;;;;;;;;;;;;;;;;;;5026148;28;19924;-70
2022/03/12 07:48:54;;;;;;;;;;;;;;;;;;5031188;28;19920;-70
2022/03/12 07:51:21;;;;;;;;;;;;;;;;;;5032482;28;20311;-71
2022/03/12 07:53:48;;;;;;;;;;;;;;;;;;5033027;28;20402;-71
2022/03/12 07:56:16;;;;;;;;;;;;;;;;;;5022418;28;20130;-71
2022/03/12 07:58:43;;;;;;;;;;;;;;;;;;5025685;28;20407;-71
2022/03/12 08:01:10;;;;;;;;;;;;;;;;;;5011518;28;19917;-71
2022/03/12 08:03:36;;;;;;;;;;;;;;;;;;5005301;28;19917;-71
2022/03/12 08:06:03;;;;;;;;;;;;;;;;;;5006341;28;19925;-73
2022/03/12 08:08:30;;;;;;;;;;;;;;;;;;5005163;28;19917;-71
2022/03/12 08:13:43;;;;;;;;;;;;;;;;;;5005318;28;19994;-71
2022/03/12 08:16:13;;;;;;;;;;;;;;;;;;5010586;28;19917;-71
2022/03/12 08:18:40;;;;;;;;;;;;;;;;;;5009136;28;20521;-71
2022/03/12 08:21:06;;;;;;;;;;;;;;;;;;5001333;28;19957;-71
2022/03/12 08:23:34;;;;;;;;;;;;;;;;;;5005175;28;21226;-71
2022/03/12 08:26:00;;;;;;;;;;;;;;;;;;5004202;28;20013;-72
2022/03/12 08:28:28;;;;;;;;;;;;;;;;;;5001951;28;19921;-71
2022/03/12 08:30:54;;;;;;;;;;;;;;;;;;5004019;28;19921;-71
2022/03/12 08:33:20;;;;;;;;;;;;;;;;;;5007136;28;19936;-72
2022/03/12 08:35:46;;;;;;;;;;;;;;;;;;5002897;28;20427;-71
2022/03/12 08:38:13;;;;;;;;;;;;;;;;;;4997458;28;19929;-71
2022/03/12 08:40:39;;;;;;;;;;;;;;;;;;5007200;28;20037;-72
2022/03/12 08:43:07;;;;;;;;;;;;;;;;;;5005052;28;20369;-72
2022/03/12 08:45:33;;;;;;;;;;;;;;;;;;5003999;28;20015;-72
2022/03/12 08:48:00;;;;;;;;;;;;;;;;;;5002374;28;19929;-72
2022/03/12 08:50:26;;;;;;;;;;;;;;;;;;5000910;28;20380;-71
2022/03/12 08:52:53;;;;;;;;;;;;;;;;;;4989890;28;19917;-71
2022/03/12 08:55:19;;;;;;;;;;;;;;;;;;4995636;28;20012;-69
2022/03/12 08:57:47;;;;;;;;;;;;;;;;;;5002254;28;19917;-73
2022/03/12 09:00:14;;;;;;;;;;;;;;;;;;5024379;28;19936;-71
2022/03/12 09:02:40;;;;;;;;;;;;;;;;;;5029043;28;20177;-72
2022/03/12 09:05:08;;;;;;;;;;;;;;;;;;5026475;28;19917;-72
2022/03/12 09:07:35;;;;;;;;;;;;;;;;;;5025181;28;20451;-71
2022/03/12 09:10:05;;;;;;;;;;;;;;;;;;5028988;28;20354;-71
2022/03/12 09:12:34;;;;;;;;;;;;;;;;;;5025479;28;19924;-70
2022/03/12 09:15:00;;;;;;;;;;;;;;;;;;5027118;28;19917;-71
2022/03/12 09:17:26;;;;;;;;;;;;;;;;;;5025470;28;20363;-70
2022/03/12 09:19:52;;;;;;;;;;;;;;;;;;5026156;28;20024;-71
2022/03/12 09:22:19;;;;;;;;;;;;;;;;;;5023144;28;19921;-70
2022/03/12 09:24:46;;;;;;;;;;;;;;;;;;5023490;28;19952;-71
2022/03/12 09:27:12;;;;;;;;;;;;;;;;;;5027332;28;19991;-71
2022/03/12 09:29:39;;;;;;;;;;;;;;;;;;5026010;28;20003;-71
2022/03/12 09:32:05;;;;;;;;;;;;;;;;;;5024493;28;19913;-71
2022/03/12 09:34:31;;;;;;;;;;;;;;;;;;5025654;28;20365;-71
2022/03/12 09:36:59;;;;;;;;;;;;;;;;;;5027995;28;20329;-70
2022/03/12 09:39:26;;;;;;;;;;;;;;;;;;5024750;28;19920;-71
2022/03/12 09:41:52;;;;;;;;;;;;;;;;;;5028680;28;20024;-71
2022/03/12 09:44:19;;;;;;;;;;;;;;;;;;5025197;28;20375;-71
2022/03/12 09:46:46;;;;;;;;;;;;;;;;;;5009601;28;19920;-71
2022/03/12 09:49:13;;;;;;;;;;;;;;;;;;5024661;28;19943;-70
2022/03/12 09:51:40;;;;;;;;;;;;;;;;;;5030274;28;20474;-72
2022/03/12 09:54:06;;;;;;;;;;;;;;;;;;5025514;28;19917;-71
2022/03/12 09:56:32;;;;;;;;;;;;;;;;;;5030733;28;19923;-71
2022/03/12 09:58:58;;;;;;;;;;;;;;;;;;5025454;28;20059;-70
2022/03/12 10:01:25;;;;;;;;;;;;;;;;;;5020089;28;19966;-70
2022/03/12 10:03:52;;;;;;;;;;;;;;;;;;5020452;28;19923;-70
2022/03/12 10:06:19;;;;;;;;;;;;;;;;;;5024635;28;19917;-71
2022/03/12 10:08:45;;;;;;;;;;;;;;;;;;5029178;28;20241;-71
2022/03/12 10:11:13;;;;;;;;;;;;;;;;;;5028284;28;19943;-72
2022/03/12 10:13:41;;;;;;;;;;;;;;;;;;5027284;28;20305;-71
2022/03/12 10:16:09;;;;;;;;;;;;;;;;;;5015451;28;20461;-73
2022/03/12 10:18:36;;;;;;;;;;;;;;;;;;5024853;28;19938;-72
2022/03/12 10:21:03;;;;;;;;;;;;;;;;;;5016381;28;20775;-71
2022/03/12 10:23:31;;;;;;;;;;;;;;;;;;5022205;28;20702;-72
2022/03/12 10:25:58;;;;;;;;;;;;;;;;;;5009311;28;19922;-71
2022/03/12 10:28:29;;;;;;;;;;;;;;;;;;5003052;28;20210;-72
2022/03/12 10:31:07;;;;;;;;;;;;;;;;;;5006488;28;20383;-71
2022/03/12 10:33:33;;;;;;;;;;;;;;;;;;5004569;28;23849;-71
2022/03/12 10:36:01;;;;;;;;;;;;;;;;;;5009477;28;19924;-72
2022/03/12 10:38:28;;;;;;;;;;;;;;;;;;5003248;28;20387;-72
2022/03/12 10:40:54;;;;;;;;;;;;;;;;;;5003302;28;19921;-73
2022/03/12 10:43:20;;;;;;;;;;;;;;;;;;4998072;28;19917;-72
2022/03/12 10:45:50;;;;;;;;;;;;;;;;;;5006223;28;19921;-72
2022/03/12 10:48:22;;;;;;;;;;;;;;;;;;5002569;28;19927;-73
2022/03/12 10:50:48;;;;;;;;;;;;;;;;;;5005863;28;20442;-72
2022/03/12 10:53:15;;;;;;;;;;;;;;;;;;5002430;28;19940;-72
2022/03/12 10:55:42;;;;;;;;;;;;;;;;;;5006268;28;19928;-73
2022/03/12 10:58:08;;;;;;;;;;;;;;;;;;5005829;28;19921;-73
2022/03/12 11:00:36;;;;;;;;;;;;;;;;;;5002107;28;19925;-73
2022/03/12 11:03:02;;;;;;;;;;;;;;;;;;5005392;28;19917;-73
2022/03/12 11:05:28;;;;;;;;;;;;;;;;;;5005311;28;19924;-73
2022/03/12 11:07:56;;;;;;;;;;;;;;;;;;5005614;28;20037;-72
2022/03/12 11:10:36;;;;;;;;;;;;;;;;;;5001409;28;19921;-72
2022/03/12 11:13:04;;;;;;;;;;;;;;;;;;5004915;28;19928;-72
2022/03/12 11:15:32;;;;;;;;;;;;;;;;;;5001801;28;19917;-71
2022/03/12 11:17:58;;;;;;;;;;;;;;;;;;5005902;28;19925;-72
2022/03/12 11:20:25;;;;;;;;;;;;;;;;;;5004696;28;20329;-72
2022/03/12 11:22:51;;;;;;;;;;;;;;;;;;5008360;28;20018;-72
2022/03/12 11:25:18;;;;;;;;;;;;;;;;;;5003144;28;20047;-71
2022/03/12 11:27:49;;;;;;;;;;;;;;;;;;5009012;28;20128;-72
2022/03/12 11:30:15;;;;;;;;;;;;;;;;;;5001995;28;20350;-71
2022/03/12 11:32:47;;;;;;;;;;;;;;;;;;5009839;28;20263;-71
2022/03/12 11:35:17;;;;;;;;;;;;;;;;;;4990266;28;20474;-71
2022/03/12 11:37:43;;;;;;;;;;;;;;;;;;5007654;28;19949;-72
2022/03/12 11:40:11;;;;;;;;;;;;;;;;;;5009142;28;20450;-71
2022/03/12 11:42:38;;;;;;;;;;;;;;;;;;5008587;28;19957;-71
2022/03/12 11:45:04;;;;;;;;;;;;;;;;;;5011603;28;19980;-71
2022/03/12 11:47:31;;;;;;;;;;;;;;;;;;5008639;28;19932;-72
2022/03/12 11:49:59;;;;;;;;;;;;;;;;;;5011696;28;19971;-72
2022/03/12 11:52:26;;;;;;;;;;;;;;;;;;4990588;28;19916;-72
2022/03/12 11:54:56;;;;;;;;;;;;;;;;;;5009296;28;20402;-72
2022/03/12 11:57:22;;;;;;;;;;;;;;;;;;5006204;28;19988;-71
2022/03/12 11:59:48;;;;;;;;;;;;;;;;;;5019020;28;20327;-72
2022/03/12 12:02:14;;;;;;;;;;;;;;;;;;5027818;28;19965;-71
2022/03/12 12:04:40;;;;;;;;;;;;;;;;;;5032752;28;20007;-71
2022/03/12 12:07:06;;;;;;;;;;;;;;;;;;5028596;28;19952;-71
2022/03/12 12:09:33;;;;;;;;;;;;;;;;;;5023999;28;19917;-72
2022/03/12 12:12:04;;;;;;;;;;;;;;;;;;5028958;28;19923;-71
2022/03/12 12:14:30;;;;;;;;;;;;;;;;;;5007841;28;20070;-71
2022/03/12 12:17:00;;;;;;;;;;;;;;;;;;5026265;28;20327;-71
2022/03/12 12:19:27;;;;;;;;;;;;;;;;;;5028362;28;19924;-71
2022/03/12 12:21:54;;;;;;;;;;;;;;;;;;5028633;28;19920;-71
2022/03/12 12:24:20;;;;;;;;;;;;;;;;;;5026693;28;19989;-71
2022/03/12 12:26:46;;;;;;;;;;;;;;;;;;5030541;28;19928;-71
2022/03/12 12:29:12;;;;;;;;;;;;;;;;;;5010912;28;19921;-71
2022/03/12 12:31:40;;;;;;;;;;;;;;;;;;5029774;28;19924;-71
2022/03/12 12:34:05;;;;;;;;;;;;;;;;;;5028589;28;19924;-71
2022/03/12 12:36:33;;;;;;;;;;;;;;;;;;5021564;28;20760;-70
2022/03/12 12:38:59;;;;;;;;;;;;;;;;;;5026852;28;19925;-71
2022/03/12 12:41:25;;;;;;;;;;;;;;;;;;5022366;28;20349;-71
2022/03/12 12:43:51;;;;;;;;;;;;;;;;;;5024514;28;19917;-71
2022/03/12 12:46:17;;;;;;;;;;;;;;;;;;5022677;28;20008;-71
2022/03/12 12:48:45;;;;;;;;;;;;;;;;;;5027137;28;19917;-71
2022/03/12 12:51:12;;;;;;;;;;;;;;;;;;5027179;28;19927;-71
2022/03/12 12:53:38;;;;;;;;;;;;;;;;;;5024629;28;20829;-70
2022/03/12 12:56:04;;;;;;;;;;;;;;;;;;5028438;28;19923;-70
2022/03/12 12:58:32;;;;;;;;;;;;;;;;;;5010967;28;19976;-70
2022/03/12 13:00:59;;;;;;;;;;;;;;;;;;5028661;28;19927;-69
2022/03/12 13:03:25;;;;;;;;;;;;;;;;;;5022798;28;19917;-69
2022/03/12 13:05:52;;;;;;;;;;;;;;;;;;5027913;28;20323;-69
2022/03/12 13:08:19;;;;;;;;;;;;;;;;;;5006919;28;19932;-69
2022/03/12 13:10:46;;;;;;;;;;;;;;;;;;5029055;28;20401;-69
2022/03/12 13:13:15;;;;;;;;;;;;;;;;;;5029366;28;20243;-69
2022/03/12 13:15:56;;;;;;;;;;;;;;;;;;5027581;28;19938;-69
2022/03/12 13:18:26;;;;;;;;;;;;;;;;;;5019518;28;20348;-69
2022/03/12 13:20:54;;;;;;;;;;;;;;;;;;5028012;28;19944;-69
2022/03/12 13:23:20;;;;;;;;;;;;;;;;;;5023641;28;19917;-69
2022/03/12 13:25:46;;;;;;;;;;;;;;;;;;5024019;28;19944;-69
2022/03/12 13:28:15;;;;;;;;;;;;;;;;;;5029033;28;19960;-69
2022/03/12 13:30:41;;;;;;;;;;;;;;;;;;5025980;28;20382;-68
2022/03/12 13:33:07;;;;;;;;;;;;;;;;;;5025079;28;20312;-68
2022/03/12 13:35:33;;;;;;;;;;;;;;;;;;5024294;28;20696;-68
2022/03/12 13:38:03;;;;;;;;;;;;;;;;;;5027133;28;19916;-72
2022/03/12 13:40:29;;;;;;;;;;;;;;;;;;5021781;28;20401;-72
2022/03/12 13:42:55;;;;;;;;;;;;;;;;;;5030578;28;19925;-72
2022/03/12 13:45:24;;;;;;;;;;;;;;;;;;5022972;28;19923;-73
2022/03/12 13:48:11;;;;;;;;;;;;;;;;;;5029077;28;19928;-73
2022/03/12 13:50:37;;;;;;;;;;;;;;;;;;5023714;28;19951;-68
2022/03/12 13:53:04;;;;;;;;;;;;;;;;;;5028646;28;20020;-69
2022/03/12 13:55:31;;;;;;;;;;;;;;;;;;5006168;28;19916;-70
2022/03/12 13:58:01;;;;;;;;;;;;;;;;;;5028417;28;19921;-70
2022/03/12 14:00:37;;;;;;;;;;;;;;;;;;5023938;28;19922;-71
2022/03/12 14:03:03;;;;;;;;;;;;;;;;;;5028808;28;19978;-70
2022/03/12 14:05:30;;;;;;;;;;;;;;;;;;5006549;28;19920;-71
2022/03/12 14:07:56;;;;;;;;;;;;;;;;;;5026302;28;19928;-72
2022/03/12 14:10:23;;;;;;;;;;;;;;;;;;5025198;28;19917;-71
2022/03/12 14:12:50;;;;;;;;;;;;;;;;;;5011170;28;19916;-72
2022/03/12 14:15:18;;;;;;;;;;;;;;;;;;5024987;28;20412;-72
2022/03/12 14:17:47;;;;;;;;;;;;;;;;;;5022512;28;19964;-70
2022/03/12 14:20:14;;;;;;;;;;;;;;;;;;5021934;28;19928;-71
2022/03/12 14:22:42;;;;;;;;;;;;;;;;;;5010237;28;20252;-71
2022/03/12 14:25:08;;;;;;;;;;;;;;;;;;5027730;28;19917;-71
2022/03/12 14:27:36;;;;;;;;;;;;;;;;;;5023557;28;20445;-72
2022/03/12 14:30:03;;;;;;;;;;;;;;;;;;5009729;28;20007;-71
2022/03/12 14:32:31;;;;;;;;;;;;;;;;;;5026324;28;20011;-71
2022/03/12 14:34:57;;;;;;;;;;;;;;;;;;5030206;28;19990;-70
2022/03/12 14:37:44;;;;;;;;;;;;;;;;;;5023236;28;20420;-70
2022/03/12 14:40:11;;;;;;;;;;;;;;;;;;5028334;28;20440;-70
2022/03/12 14:42:40;;;;;;;;;;;;;;;;;;5021411;28;19916;-71
2022/03/12 14:45:07;;;;;;;;;;;;;;;;;;5028176;28;20070;-71
2022/03/12 14:47:35;;;;;;;;;;;;;;;;;;5023480;28;20764;-71
2022/03/12 14:50:01;;;;;;;;;;;;;;;;;;5031763;28;19923;-70
2022/03/12 14:52:28;;;;;;;;;;;;;;;;;;5026741;28;19921;-70
2022/03/12 14:54:55;;;;;;;;;;;;;;;;;;5031176;28;19916;-71
2022/03/12 14:57:23;;;;;;;;;;;;;;;;;;5023758;28;19923;-70
2022/03/12 14:59:50;;;;;;;;;;;;;;;;;;5029676;28;19952;-70
2022/03/12 15:02:16;;;;;;;;;;;;;;;;;;5024047;28;19924;-70
2022/03/12 15:04:48;;;;;;;;;;;;;;;;;;5025720;28;19924;-71
2022/03/12 15:07:15;;;;;;;;;;;;;;;;;;5006894;28;19929;-70
2022/03/12 15:09:41;;;;;;;;;;;;;;;;;;5031485;28;19939;-70
2022/03/12 15:12:12;;;;;;;;;;;;;;;;;;5028701;28;20446;-70
2022/03/12 15:14:41;;;;;;;;;;;;;;;;;;5030568;28;19921;-70
2022/03/12 15:17:07;;;;;;;;;;;;;;;;;;5031573;28;20019;-70
2022/03/12 15:19:34;;;;;;;;;;;;;;;;;;5028902;28;20722;-70
2022/03/12 15:22:00;;;;;;;;;;;;;;;;;;5030976;28;20007;-70
2022/03/12 15:24:27;;;;;;;;;;;;;;;;;;5027133;28;20406;-70
2022/03/12 15:26:53;;;;;;;;;;;;;;;;;;5030108;28;20039;-70
2022/03/12 15:29:20;;;;;;;;;;;;;;;;;;5025898;28;19917;-70
2022/03/12 15:31:47;;;;;;;;;;;;;;;;;;5030425;28;19917;-71
2022/03/12 15:34:13;;;;;;;;;;;;;;;;;;5030065;28;20453;-71
2022/03/12 15:36:39;;;;;;;;;;;;;;;;;;5031020;28;19924;-70
2022/03/12 15:39:06;;;;;;;;;;;;;;;;;;5029185;28;20369;-70
2022/03/12 15:41:33;;;;;;;;;;;;;;;;;;5027380;28;20039;-70
2022/03/12 15:44:00;;;;;;;;;;;;;;;;;;5010120;28;19921;-70
2022/03/12 15:46:28;;;;;;;;;;;;;;;;;;5026805;28;19917;-70
2022/03/12 15:48:54;;;;;;;;;;;;;;;;;;5031174;28;19917;-70
2022/03/12 15:51:22;;;;;;;;;;;;;;;;;;5026978;28;20459;-71
2022/03/12 15:53:48;;;;;;;;;;;;;;;;;;5029804;28;19923;-71
2022/03/12 15:56:17;;;;;;;;;;;;;;;;;;5028676;28;19920;-72
2022/03/12 15:58:43;;;;;;;;;;;;;;;;;;5029552;28;19921;-71
2022/03/12 16:01:09;;;;;;;;;;;;;;;;;;5009432;28;19917;-71
2022/03/12 16:03:35;;;;;;;;;;;;;;;;;;5007057;28;20351;-71
2022/03/12 16:06:01;;;;;;;;;;;;;;;;;;5012034;28;19924;-70
2022/03/12 16:08:28;;;;;;;;;;;;;;;;;;5006579;28;20311;-70
2022/03/12 16:10:54;;;;;;;;;;;;;;;;;;4947812;28;20372;-71
2022/03/12 16:13:23;;;;;;;;;;;;;;;;;;4944531;28;20158;-70
2022/03/12 16:15:54;;;;;;;;;;;;;;;;;;4949548;28;19934;-70
2022/03/12 16:18:20;;;;;;;;;;;;;;;;;;4944070;28;19981;-70
2022/03/12 16:20:56;;;;;;;;;;;;;;;;;;4947730;28;19918;-71
2022/03/12 16:23:25;;;;;;;;;;;;;;;;;;4947745;28;19922;-71
2022/03/12 16:25:52;;;;;;;;;;;;;;;;;;4945436;28;19922;-71
2022/03/12 16:28:18;;;;;;;;;;;;;;;;;;4946958;28;19944;-71
2022/03/12 16:30:44;;;;;;;;;;;;;;;;;;4948548;28;19918;-71
2022/03/12 16:33:10;;;;;;;;;;;;;;;;;;4952160;28;19945;-72
2022/03/12 16:35:38;;;;;;;;;;;;;;;;;;4948666;28;19918;-71
2022/03/12 16:38:05;;;;;;;;;;;;;;;;;;4947981;28;20050;-71
2022/03/12 16:40:35;;;;;;;;;;;;;;;;;;4945121;28;20479;-71
2022/03/12 16:43:08;;;;;;;;;;;;;;;;;;4949135;28;19925;-71
2022/03/12 16:45:35;;;;;;;;;;;;;;;;;;4946920;28;20608;-71
2022/03/12 16:48:01;;;;;;;;;;;;;;;;;;4949654;28;19922;-70
2022/03/12 16:50:28;;;;;;;;;;;;;;;;;;4944669;28;19978;-71
2022/03/12 16:52:54;;;;;;;;;;;;;;;;;;4948731;28;19925;-71